Time;durP1;ratioP1;P1;durP2;ratioP2;P2;SDS_P1;SDS_P2;PMS_P1;PMS_P2;Temp;Humidity;BMP_temperature;BMP_pressure;BME280_temperature;BME280_humidity;BME280_pressure;Samples;Min_cycle;Max_cycle;Signal;HPM_P1;HPM_P2
2023/06/04 00:00:54;;;;;;;2.55;1.70;;;;;;;20.66;37.18;93457.97;4992722;28;20098;-90
2023/06/04 00:03:20;;;;;;;3.80;2.00;;;;;;;20.64;37.29;93446.75;5020679;28;20361;-90
2023/06/04 00:05:45;;;;;;;3.90;2.10;;;;;;;20.66;36.83;93450.47;5006038;28;20060;-90
2023/06/04 00:08:11;;;;;;;2.20;1.63;;;;;;;20.64;36.98;93441.25;5033238;28;20420;-89
2023/06/04 00:10:36;;;;;;;3.30;1.98;;;;;;;20.63;37.17;93440.53;5033067;28;20500;-90
2023/06/04 00:13:01;;;;;;;3.80;1.92;;;;;;;20.62;37.11;93439.03;5025751;28;20118;-91
2023/06/04 00:15:27;;;;;;;3.13;2.10;;;;;;;20.62;37.21;93438.28;5025302;28;20037;-90
2023/06/04 00:17:52;;;;;;;3.30;2.70;;;;;;;20.60;37.03;93438.81;5030052;28;20045;-90
2023/06/04 00:20:18;;;;;;;6.30;2.30;;;;;;;20.61;37.47;93437.56;4992987;28;20095;-92
2023/06/04 00:22:43;;;;;;;2.85;2.03;;;;;;;20.64;36.93;93433.03;5033363;28;20037;-90
2023/06/04 00:25:09;;;;;;;2.45;1.95;;;;;;;20.59;37.05;93428.34;5008938;28;20504;-91
2023/06/04 00:27:35;;;;;;;2.60;2.13;;;;;;;20.59;37.05;93428.34;5026964;28;20403;-91
2023/06/04 00:30:00;;;;;;;3.00;2.00;;;;;;;20.58;37.15;93421.38;5042165;28;20044;-91
2023/06/04 00:32:26;;;;;;;3.47;2.40;;;;;;;20.60;36.93;93421.59;5004290;28;20030;-90
2023/06/04 00:34:52;;;;;;;2.70;1.83;;;;;;;20.58;37.33;93418.63;5037064;28;20033;-91
2023/06/04 00:37:17;;;;;;;2.90;2.13;;;;;;;20.57;37.26;93423.38;5006111;28;20065;-91
2023/06/04 00:39:42;;;;;;;4.88;2.22;;;;;;;20.57;37.06;93423.38;5019963;28;20057;-90
2023/06/04 00:42:08;;;;;;;2.97;2.03;;;;;;;20.57;36.80;93430.91;5025401;28;20440;-90
2023/06/04 00:44:33;;;;;;;3.10;2.33;;;;;;;20.57;37.00;93428.16;5006304;28;20436;-91
2023/06/04 00:46:59;;;;;;;2.65;1.75;;;;;;;20.55;36.88;93417.69;5032501;28;20515;-90
2023/06/04 00:49:25;;;;;;;2.75;2.17;;;;;;;20.56;36.98;93421.94;5027174;28;20052;-89
2023/06/04 00:51:50;;;;;;;2.80;2.00;;;;;;;20.57;36.67;93411.69;5026900;28;20477;-90
2023/06/04 00:54:17;;;;;;;2.88;2.33;;;;;;;20.54;37.34;93416.22;5024332;28;20473;-91
2023/06/04 00:56:44;;;;;;;2.42;2.00;;;;;;;20.54;37.16;93413.47;5020361;28;20045;-91
2023/06/04 00:59:09;;;;;;;2.33;1.63;;;;;;;20.55;36.99;93416.97;5020119;28;20045;-90
2023/06/04 01:01:40;;;;;;;2.75;1.90;;;;;;;20.54;37.06;93407.97;5024085;28;20484;-90
2023/06/04 01:04:07;;;;;;;3.42;1.80;;;;;;;20.55;37.04;93416.97;4989180;28;20046;-91
2023/06/04 01:06:39;;;;;;;2.75;2.30;;;;;;;20.53;37.08;93412.00;5022354;28;20512;-91
2023/06/04 01:09:05;;;;;;;2.97;2.35;;;;;;;20.52;36.77;93416.00;5054481;28;20049;-90
2023/06/04 01:11:34;;;;;;;3.85;1.88;;;;;;;20.52;37.13;93416.75;5017815;28;20060;-91
2023/06/04 01:14:00;;;;;;;3.13;1.92;;;;;;;20.51;37.21;93409.75;5006091;28;20054;-91
2023/06/04 01:16:28;;;;;;;4.70;2.35;;;;;;;20.50;37.04;93411.03;5026379;28;20037;-91
2023/06/04 01:18:57;;;;;;;3.10;2.10;;;;;;;20.51;36.98;93411.78;4994031;28;20034;-91
2023/06/04 01:21:23;;;;;;;2.55;1.70;;;;;;;20.51;37.24;93409.03;5052111;28;20081;-91
2023/06/04 01:24:00;;;;;;;3.17;2.00;;;;;;;20.50;37.03;93413.03;5012289;28;20048;-90
2023/06/04 01:26:27;;;;;;;2.83;1.85;;;;;;;20.51;37.21;93409.75;5024848;28;20389;-92
2023/06/04 01:28:53;;;;;;;2.70;2.00;;;;;;;20.49;36.82;93409.53;5028388;28;20090;-90
2023/06/04 01:31:22;;;;;;;2.90;2.28;;;;;;;20.49;37.15;93412.28;5013046;28;20116;-91
2023/06/04 01:33:51;;;;;;;3.38;2.00;;;;;;;20.49;37.11;93408.81;5031365;28;20037;-91
2023/06/04 01:36:16;;;;;;;4.15;1.92;;;;;;;20.48;37.21;93401.84;5012148;28;20038;-91
2023/06/04 01:38:42;;;;;;;2.40;1.95;;;;;;;20.49;37.14;93412.28;5032777;28;20053;-91
2023/06/04 01:41:07;;;;;;;3.55;2.10;;;;;;;20.49;37.22;93408.81;5007127;28;20087;-90
2023/06/04 01:43:34;;;;;;;3.03;1.83;;;;;;;20.48;37.37;93410.81;4993037;28;20068;-90
2023/06/04 01:46:00;;;;;;;2.85;2.00;;;;;;;20.47;37.30;93401.09;5009940;28;20049;-91
2023/06/04 01:48:26;;;;;;;3.58;2.30;;;;;;;20.47;37.15;93400.34;5028914;28;20176;-91
2023/06/04 01:50:51;;;;;;;2.45;1.90;;;;;;;20.47;36.93;93392.84;5023735;28;20088;-90
2023/06/04 01:53:17;;;;;;;3.03;1.70;;;;;;;20.47;37.42;93403.09;5053841;28;20079;-91
2023/06/04 01:55:42;;;;;;;2.47;1.80;;;;;;;20.46;37.22;93402.34;5022590;28;20053;-91
2023/06/04 01:58:09;;;;;;;3.00;1.85;;;;;;;20.44;37.41;93404.88;5014996;28;20045;-91
2023/06/04 02:00:34;;;;;;;15.77;3.88;;;;;;;20.45;37.10;93409.09;5026611;28;20048;-91
2023/06/04 02:03:00;;;;;;;2.80;2.10;;;;;;;20.45;37.16;93411.84;5011592;28;20050;-91
2023/06/04 02:05:26;;;;;;;2.80;2.10;;;;;;;20.43;37.40;93417.13;5028149;28;20511;-91
2023/06/04 02:07:51;;;;;;;2.65;1.95;;;;;;;20.45;37.28;93416.59;5023623;28;20041;-90
2023/06/04 02:10:18;;;;;;;3.17;1.95;;;;;;;20.44;37.08;93420.63;5043585;28;20048;-90
2023/06/04 02:13:02;;;;;;;2.45;1.80;;;;;;;20.45;37.31;93425.59;5022965;28;20037;-90
2023/06/04 02:15:28;;;;;;;2.40;1.90;;;;;;;20.44;37.06;93413.13;5027546;28;20451;-90
2023/06/04 02:17:58;;;;;;;3.22;2.28;;;;;;;20.44;37.23;93417.88;5028163;28;20037;-90
2023/06/04 02:20:23;;;;;;;2.53;2.05;;;;;;;20.41;37.29;93422.41;5043469;28;20574;-90
2023/06/04 02:22:49;;;;;;;2.78;1.58;;;;;;;20.42;37.23;93421.13;5028403;28;20076;-90
2023/06/04 02:25:15;;;;;;;3.63;2.33;;;;;;;20.40;37.34;93415.44;5027426;28;20053;-90
2023/06/04 02:27:40;;;;;;;2.65;1.85;;;;;;;20.42;37.25;93423.88;5017242;28;20041;-90
2023/06/04 02:30:06;;;;;;;5.65;2.25;;;;;;;20.40;37.34;93422.91;5027967;28;20467;-91
2023/06/04 02:32:33;;;;;;;2.80;1.85;;;;;;;20.41;37.02;93424.41;5020065;28;20079;-90
2023/06/04 02:34:58;;;;;;;3.58;2.30;;;;;;;20.40;37.03;93420.19;5031142;28;20038;-92
2023/06/04 02:37:24;;;;;;;1.83;1.55;;;;;;;20.39;37.26;93415.94;5007771;28;20045;-91
2023/06/04 02:39:49;;;;;;;4.68;2.20;;;;;;;20.40;36.94;93420.91;5028209;28;20033;-91
2023/06/04 02:42:15;;;;;;;2.65;1.65;;;;;;;20.38;37.15;93417.94;5011430;28;20824;-91
2023/06/04 02:44:40;;;;;;;4.10;2.22;;;;;;;20.39;37.08;93419.44;5021528;28;20095;-90
2023/06/04 02:47:06;;;;;;;2.90;2.08;;;;;;;20.41;37.07;93422.41;5011632;28;20038;-91
2023/06/04 02:49:31;;;;;;;3.33;2.10;;;;;;;20.40;37.13;93417.44;5026282;28;20049;-91
2023/06/04 02:52:00;;;;;;;3.38;2.15;;;;;;;20.38;37.14;93406.22;5015369;28;20034;-91
2023/06/04 02:54:25;;;;;;;3.40;1.75;;;;;;;20.39;37.13;93413.94;5030347;28;20037;-90
2023/06/04 02:56:51;;;;;;;4.10;2.05;;;;;;;20.38;37.17;93422.69;5013995;28;20403;-90
2023/06/04 02:59:16;;;;;;;3.80;1.90;;;;;;;20.38;36.98;93419.94;5010442;28;20477;-91
2023/06/04 03:01:42;;;;;;;3.85;1.95;;;;;;;20.38;36.89;93414.47;5036694;28;20041;-91
2023/06/04 03:04:09;;;;;;;2.47;2.03;;;;;;;20.37;37.34;93407.50;5007682;28;20033;-90
2023/06/04 03:06:38;;;;;;;2.88;1.67;;;;;;;20.37;36.95;93404.75;5039633;28;20042;-91
2023/06/04 03:09:03;;;;;;;3.53;1.98;;;;;;;20.36;37.04;93408.72;5042084;28;20041;-91
2023/06/04 03:11:29;;;;;;;2.53;1.60;;;;;;;20.36;37.11;93414.22;5060288;28;20037;-90
2023/06/04 03:13:54;;;;;;;2.35;1.85;;;;;;;20.36;37.17;93403.22;5040072;28;20041;-90
2023/06/04 03:16:20;;;;;;;5.28;2.05;;;;;;;20.36;37.18;93403.97;4984215;28;20067;-90
2023/06/04 03:18:46;;;;;;;3.13;1.63;;;;;;;20.34;37.06;93414.75;4993061;28;20065;-91
2023/06/04 03:21:11;;;;;;;3.03;2.08;;;;;;;20.35;37.11;93418.25;5020929;28;20077;-92
2023/06/04 03:23:36;;;;;;;4.55;2.22;;;;;;;20.34;37.03;93417.50;5029982;28;20075;-91
2023/06/04 03:26:02;;;;;;;2.92;2.10;;;;;;;20.34;37.02;93422.25;5047033;28;20068;-90
2023/06/04 03:28:28;;;;;;;4.25;2.08;;;;;;;20.35;36.81;93427.19;5046364;28;20043;-90
2023/06/04 03:30:53;;;;;;;3.55;2.05;;;;;;;20.34;37.00;93423.00;5014407;28;20037;-91
2023/06/04 03:33:18;;;;;;;6.25;2.60;;;;;;;20.35;36.93;93432.69;5038200;28;20079;-91
2023/06/04 03:35:45;;;;;;;3.35;1.80;;;;;;;20.35;37.02;93432.69;5014227;28;20050;-90
2023/06/04 03:38:10;;;;;;;3.63;2.80;;;;;;;20.35;36.83;93431.97;5034890;28;20041;-91
2023/06/04 03:40:36;;;;;;;2.70;1.90;;;;;;;20.34;36.73;93436.00;5010845;28;20077;-91
2023/06/04 03:43:03;;;;;;;2.80;2.10;;;;;;;20.35;36.83;93442.97;5039774;28;20132;-91
2023/06/04 03:45:29;;;;;;;2.05;1.85;;;;;;;20.35;36.75;93440.94;5022784;28;20378;-91
2023/06/04 03:47:54;;;;;;;2.67;1.98;;;;;;;20.35;36.80;93443.66;5031804;28;20036;-92
2023/06/04 03:50:20;;;;;;;2.15;1.55;;;;;;;20.35;36.91;93443.66;5010439;28;20034;-91
2023/06/04 03:52:45;;;;;;;3.25;2.05;;;;;;;20.35;36.79;93435.44;5019354;28;20033;-91
2023/06/04 03:55:11;;;;;;;4.15;1.85;;;;;;;20.37;36.70;93434.94;5013456;28;20484;-90
2023/06/04 03:57:38;;;;;;;3.22;2.22;;;;;;;20.39;36.68;93435.91;5006620;28;20045;-90
2023/06/04 04:00:05;;;;;;;2.47;1.90;;;;;;;20.41;36.57;93440.88;5014725;28;20049;-90
2023/06/04 04:02:31;;;;;;;2.95;2.00;;;;;;;20.42;36.59;93448.59;5048007;28;20086;-91
2023/06/04 04:04:56;;;;;;;2.30;1.70;;;;;;;20.42;36.63;93439.63;5029812;28;20071;-90
2023/06/04 04:07:22;;;;;;;4.25;2.47;;;;;;;20.42;36.54;93437.59;5028201;28;20049;-90
2023/06/04 04:09:48;;;;;;;4.45;2.60;;;;;;;20.46;36.49;93445.53;5010408;28;20041;-92
2023/06/04 04:12:13;;;;;;;3.72;2.63;;;;;;;20.44;36.82;93442.59;5026247;28;20060;-90
2023/06/04 04:14:39;;;;;;;3.58;2.08;;;;;;;20.45;36.60;93442.06;5023100;28;20456;-91
2023/06/04 04:17:04;;;;;;;2.60;1.92;;;;;;;20.46;36.41;93445.53;5023177;28;20496;-91
2023/06/04 04:19:30;;;;;;;2.25;2.05;;;;;;;20.45;36.63;93444.81;5009768;28;20041;-91
2023/06/04 04:21:56;;;;;;;3.70;2.50;;;;;;;20.44;36.75;93437.09;5021577;28;20334;-91
2023/06/04 04:24:25;;;;;;;3.67;1.73;;;;;;;20.46;36.66;93443.53;5024823;28;20471;-90
2023/06/04 04:26:53;;;;;;;2.55;2.15;;;;;;;20.43;36.67;93447.34;5021666;28;20407;-91
2023/06/04 04:29:24;;;;;;;3.97;2.17;;;;;;;20.45;36.83;93446.81;4989363;28;20037;-90
2023/06/04 04:31:53;;;;;;;2.58;1.95;;;;;;;20.47;36.90;93445.03;5004337;28;20036;-91
2023/06/04 04:34:21;;;;;;;2.90;2.15;;;;;;;20.48;36.65;93443.75;5025001;28;20029;-90
2023/06/04 04:36:51;;;;;;;2.90;1.90;;;;;;;20.49;36.90;93441.75;5037100;28;20107;-91
2023/06/04 04:39:20;;;;;;;2.75;1.80;;;;;;;20.50;36.90;93443.25;5011943;28;20111;-91
2023/06/04 04:41:45;;;;;;;3.45;1.67;;;;;;;20.52;37.00;93443.47;5013619;28;20530;-91
2023/06/04 04:44:11;;;;;;;2.72;1.67;;;;;;;20.51;37.00;93439.22;5043008;28;20041;-91
2023/06/04 04:46:36;;;;;;;3.00;1.67;;;;;;;20.52;37.17;93440.72;5013079;28;20037;-91
2023/06/04 04:49:02;;;;;;;2.85;1.95;;;;;;;20.52;36.90;93446.94;5009364;28;20042;-92
2023/06/04 04:51:27;;;;;;;5.03;1.90;;;;;;;20.52;37.00;93443.47;5024904;28;20041;-91
2023/06/04 04:53:54;;;;;;;2.03;1.70;;;;;;;20.52;37.02;93448.94;5012013;28;20033;-91
2023/06/04 04:56:20;;;;;;;3.10;2.10;;;;;;;20.52;37.28;93451.69;5040649;28;20057;-91
2023/06/04 04:58:45;;;;;;;4.05;1.88;;;;;;;20.53;37.07;93453.19;5022935;28;20053;-91
2023/06/04 05:01:11;;;;;;;2.28;1.60;;;;;;;20.56;37.00;93448.66;5040190;28;20060;-91
2023/06/04 05:03:36;;;;;;;2.55;1.88;;;;;;;20.55;37.06;93453.41;5027699;28;20045;-91
2023/06/04 05:06:01;;;;;;;3.30;1.95;;;;;;;20.57;36.80;93444.63;5020703;28;20038;-90
2023/06/04 05:08:27;;;;;;;3.40;2.10;;;;;;;20.57;37.17;93450.84;5032009;28;20385;-91
2023/06/04 05:10:52;;;;;;;1.80;1.35;;;;;;;20.56;37.01;93452.13;5025884;28;20053;-91
2023/06/04 05:13:19;;;;;;;2.42;1.80;;;;;;;20.57;37.19;93450.13;5047272;28;20037;-91
2023/06/04 05:15:45;;;;;;;2.40;1.98;;;;;;;20.56;37.24;93449.41;4998017;28;20060;-91
2023/06/04 05:18:10;;;;;;;2.45;1.80;;;;;;;20.58;37.24;93455.06;5041471;28;20504;-91
2023/06/04 05:20:37;;;;;;;2.92;1.75;;;;;;;20.61;37.31;93454.03;5030223;28;20052;-91
2023/06/04 05:23:03;;;;;;;3.22;1.67;;;;;;;20.60;37.23;93468.28;5007955;28;20030;-90
2023/06/04 05:25:29;;;;;;;2.50;1.85;;;;;;;20.63;37.24;93470.72;5009619;28;20560;-91
2023/06/04 05:27:56;;;;;;;2.63;1.60;;;;;;;20.64;37.27;93471.47;5026885;28;20033;-90
2023/06/04 05:30:22;;;;;;;2.75;1.70;;;;;;;20.64;37.08;93469.47;5019450;28;20515;-90
2023/06/04 05:32:50;;;;;;;3.08;2.08;;;;;;;20.64;37.26;93477.72;5040125;28;20360;-91
2023/06/04 05:35:16;;;;;;;2.80;1.80;;;;;;;20.66;37.16;93485.44;5002571;28;20045;-91
2023/06/04 05:37:41;;;;;;;2.78;1.95;;;;;;;20.66;37.58;93477.94;5033069;28;20056;-91
2023/06/04 05:40:08;;;;;;;2.38;2.03;;;;;;;20.69;37.41;93481.63;5008504;28;20037;-91
2023/06/04 05:42:34;;;;;;;2.15;1.65;;;;;;;20.70;37.24;93478.38;5008649;28;20045;-91
2023/06/04 05:44:59;;;;;;;4.90;1.88;;;;;;;20.72;37.33;93478.59;5045098;28;20045;-91
2023/06/04 05:47:25;;;;;;;3.33;1.73;;;;;;;20.73;37.33;93476.59;5025602;28;20048;-90
2023/06/04 05:49:50;;;;;;;3.80;1.95;;;;;;;20.73;37.30;93482.81;5019607;28;20065;-90
2023/06/04 05:52:16;;;;;;;2.13;1.45;;;;;;;20.74;37.50;93476.06;5014678;28;20025;-91
2023/06/04 05:54:41;;;;;;;1.77;1.55;;;;;;;20.76;37.60;93467.28;4990603;28;20096;-91
2023/06/04 05:57:07;;;;;;;2.50;2.00;;;;;;;20.76;37.43;93467.28;5060208;28;20037;-92
2023/06/04 05:59:32;;;;;;;1.92;1.52;;;;;;;20.75;37.48;93466.56;5057024;28;20048;-91
2023/06/04 06:01:58;;;;;;;3.17;1.70;;;;;;;20.76;37.43;93472.78;5010426;28;20423;-91
2023/06/04 06:04:23;;;;;;;3.42;1.40;;;;;;;20.76;37.57;93472.78;5027032;28;20048;-90
2023/06/04 06:06:49;;;;;;;2.97;1.88;;;;;;;20.76;37.48;93479.03;5034474;28;20048;-91
2023/06/04 06:09:15;;;;;;;2.97;1.80;;;;;;;20.74;37.56;93478.81;5023406;28;20038;-91
2023/06/04 06:11:40;;;;;;;2.90;1.60;;;;;;;20.77;37.59;93477.03;5030486;28;20392;-91
2023/06/04 06:14:06;;;;;;;2.70;1.73;;;;;;;20.76;37.41;93490.00;5026624;28;20049;-92
2023/06/04 06:16:32;;;;;;;2.35;1.85;;;;;;;20.77;37.41;93477.75;5037435;28;20129;-91
2023/06/04 06:18:58;;;;;;;3.75;1.90;;;;;;;20.79;37.53;93488.19;5028521;28;20160;-91
2023/06/04 06:21:23;;;;;;;2.72;1.92;;;;;;;20.78;37.33;93490.22;5009284;28;20053;-91
2023/06/04 06:23:49;;;;;;;2.75;1.50;;;;;;;20.83;37.40;93488.63;5061491;28;20049;-91
2023/06/04 06:26:15;;;;;;;4.38;1.60;;;;;;;20.82;37.58;93487.91;5029495;28;20408;-91
2023/06/04 06:28:41;;;;;;;1.98;1.50;;;;;;;20.83;37.44;93485.91;4997416;28;20116;-91
2023/06/04 06:31:07;;;;;;;2.38;1.35;;;;;;;20.85;37.65;93488.84;5037650;28;20403;-91
2023/06/04 06:33:32;;;;;;;2.47;1.63;;;;;;;20.85;37.79;93492.34;5021233;28;20489;-91
2023/06/04 06:36:01;;;;;;;3.63;1.73;;;;;;;20.88;37.82;93494.06;5003635;28;20443;-91
2023/06/04 06:38:26;;;;;;;3.13;1.75;;;;;;;20.85;37.59;93500.59;5048911;28;20033;-92
2023/06/04 06:40:52;;;;;;;3.65;1.63;;;;;;;20.87;37.57;93506.31;5031221;28;20455;-90
2023/06/04 06:43:17;;;;;;;2.97;1.60;;;;;;;20.87;37.55;93502.81;5045754;28;20037;-91
2023/06/04 06:45:43;;;;;;;2.35;1.60;;;;;;;20.87;37.58;93505.56;5001937;28;20038;-90
2023/06/04 06:48:08;;;;;;;3.20;2.10;;;;;;;20.87;37.42;93505.56;5010438;28;20040;-91
2023/06/04 06:50:37;;;;;;;2.22;1.70;;;;;;;20.88;37.46;93498.81;5027464;28;20128;-90
2023/06/04 06:53:03;;;;;;;2.05;1.70;;;;;;;20.87;37.37;93505.56;5009324;28;20044;-90
2023/06/04 06:55:28;;;;;;;2.65;1.90;;;;;;;20.90;37.68;93495.53;4994518;28;20053;-92
2023/06/04 06:57:53;;;;;;;2.97;1.70;;;;;;;20.88;37.46;93509.78;5008483;28;20042;-92
2023/06/04 07:00:20;;;;;;;1.70;1.33;;;;;;;20.88;37.58;93507.03;4990433;28;20039;-91
2023/06/04 07:02:45;;;;;;;3.15;1.60;;;;;;;20.87;37.55;93495.31;4987278;28;20061;-91
2023/06/04 07:05:11;;;;;;;2.72;1.65;;;;;;;20.88;37.64;93498.81;5005361;28;20493;-91
2023/06/04 07:07:36;;;;;;;2.72;1.80;;;;;;;20.88;37.70;93499.53;4988101;28;20062;-91
2023/06/04 07:10:03;;;;;;;2.17;1.60;;;;;;;20.89;37.46;93503.03;4987484;28;20188;-92
2023/06/04 07:12:29;;;;;;;3.42;1.70;;;;;;;20.90;37.35;93504.53;5006480;28;20038;-90
2023/06/04 07:14:55;;;;;;;3.00;1.60;;;;;;;20.89;37.55;93503.03;4989884;28;20053;-91
2023/06/04 07:17:21;;;;;;;2.90;1.40;;;;;;;20.91;37.76;93499.75;4990997;28;20038;-91
2023/06/04 07:19:47;;;;;;;3.28;1.85;;;;;;;20.93;37.48;93500.72;4991165;28;20034;-91
2023/06/04 07:22:12;;;;;;;2.33;1.80;;;;;;;20.93;37.58;93506.22;4971499;28;20054;-91
2023/06/04 07:24:37;;;;;;;2.45;1.58;;;;;;;20.95;37.71;93498.19;4975486;28;20049;-91
2023/06/04 07:27:11;;;;;;;3.65;1.60;;;;;;;20.94;38.03;93512.47;4976644;28;20393;-90
2023/06/04 07:29:37;;;;;;;2.53;1.70;;;;;;;20.94;37.82;93510.44;5003077;28;20060;-91
2023/06/04 07:32:02;;;;;;;3.28;1.73;;;;;;;20.93;37.97;93508.97;4994184;28;20061;-90
2023/06/04 07:34:28;;;;;;;2.80;1.60;;;;;;;20.91;37.83;93514.25;5003835;28;20129;-91
2023/06/04 07:36:53;;;;;;;3.60;1.70;;;;;;;20.90;38.00;93509.28;4986826;28;20041;-91
2023/06/04 07:39:21;;;;;;;2.35;1.63;;;;;;;20.91;38.11;93510.75;4997960;28;20056;-91
2023/06/04 07:41:46;;;;;;;2.03;1.73;;;;;;;20.93;38.20;93510.97;4988662;28;20494;-90
2023/06/04 07:44:12;;;;;;;2.35;1.73;;;;;;;20.92;38.09;93515.00;5007113;28;20042;-92
2023/06/04 07:46:37;;;;;;;2.50;1.63;;;;;;;20.93;38.18;93500.72;5001328;28;20481;-91
2023/06/04 07:49:03;;;;;;;2.35;2.00;;;;;;;20.95;38.38;93516.69;4995512;28;20037;-91
2023/06/04 07:51:28;;;;;;;2.53;1.92;;;;;;;20.93;38.25;93511.72;5000856;28;20053;-91
2023/06/04 07:53:54;;;;;;;2.67;1.77;;;;;;;20.94;38.27;93510.44;5009530;28;20116;-92
2023/06/04 07:56:20;;;;;;;2.78;1.80;;;;;;;20.94;38.53;93507.72;5009158;28;20042;-91
2023/06/04 07:58:47;;;;;;;2.90;1.70;;;;;;;20.94;38.21;93507.72;5009907;28;20037;-90
2023/06/04 08:01:13;;;;;;;3.83;1.98;;;;;;;20.95;38.58;93511.19;4998232;28;20132;-91
2023/06/04 08:03:38;;;;;;;2.30;1.75;;;;;;;20.97;38.60;93511.41;4973632;28;20449;-91
2023/06/04 08:06:04;;;;;;;1.73;1.60;;;;;;;20.94;38.71;93518.69;4989029;28;20548;-91
2023/06/04 08:08:29;;;;;;;3.08;1.92;;;;;;;20.93;38.80;93519.97;5006642;28;20041;-91
2023/06/04 08:10:55;;;;;;;3.30;1.70;;;;;;;20.97;38.66;93523.16;4998156;28;20095;-90
2023/06/04 08:13:20;;;;;;;4.00;2.45;;;;;;;20.90;38.88;93523.00;4987999;28;20033;-90
2023/06/04 08:15:46;;;;;;;6.30;2.65;;;;;;;20.89;39.19;93525.03;5018802;28;20030;-90
2023/06/04 08:18:11;;;;;;;3.25;2.67;;;;;;;20.87;39.45;93533.78;4987351;28;20034;-90
2023/06/04 08:20:37;;;;;;;3.70;2.63;;;;;;;20.84;39.85;93537.56;4987080;28;20034;-91
2023/06/04 08:23:02;;;;;;;4.55;2.85;;;;;;;20.81;39.85;93527.63;5021495;28;20065;-89
2023/06/04 08:25:29;;;;;;;8.63;3.40;;;;;;;20.87;39.51;93524.81;4970391;28;20042;-89
2023/06/04 08:27:55;;;;;;;5.65;2.83;;;;;;;20.78;39.88;93533.44;4976081;28;20049;-90
2023/06/04 08:30:21;;;;;;;5.95;3.17;;;;;;;20.77;40.13;93535.47;4986037;28;20053;-91
2023/06/04 08:32:46;;;;;;;5.18;3.22;;;;;;;20.75;40.21;93548.22;4984603;28;20449;-89
2023/06/04 08:35:11;;;;;;;7.63;3.42;;;;;;;20.71;40.53;93548.53;4981196;28;20305;-90
2023/06/04 08:37:37;;;;;;;7.28;3.58;;;;;;;20.74;40.24;93555.72;5007141;28;20045;-89
2023/06/04 08:40:04;;;;;;;5.35;3.50;;;;;;;20.69;40.24;93551.06;5012919;28;20042;-89
2023/06/04 08:42:31;;;;;;;4.40;3.50;;;;;;;20.65;40.41;93545.13;5002796;28;20056;-90
2023/06/04 08:44:57;;;;;;;4.60;3.15;;;;;;;20.67;40.48;93558.34;5023252;28;20049;-89
2023/06/04 08:47:27;;;;;;;4.13;3.28;;;;;;;20.71;40.32;93551.28;5007666;28;20404;-90
2023/06/04 08:49:52;;;;;;;6.75;3.90;;;;;;;20.70;40.46;93551.78;5018785;28;20063;-89
2023/06/04 08:52:21;;;;;;;7.50;4.00;;;;;;;20.71;40.44;93559.53;5050882;28;20037;-90
2023/06/04 08:54:49;;;;;;;5.38;3.78;;;;;;;20.74;40.77;93563.22;5036477;28;20041;-90
2023/06/04 08:57:15;;;;;;;4.75;3.08;;;;;;;20.75;40.58;93556.47;5013338;28;20080;-90
2023/06/04 08:59:40;;;;;;;8.02;3.60;;;;;;;20.77;40.57;93562.94;5029578;28;20025;-90
2023/06/04 09:02:06;;;;;;;5.95;3.20;;;;;;;20.76;40.56;93557.97;4993918;28;20034;-90
2023/06/04 09:04:31;;;;;;;4.22;3.03;;;;;;;20.81;40.63;93563.34;5018102;28;20068;-90
2023/06/04 09:06:57;;;;;;;5.40;3.65;;;;;;;20.82;40.60;93569.59;5008524;28;20651;-90
2023/06/04 09:09:23;;;;;;;4.47;3.33;;;;;;;20.79;40.88;93562.38;5041068;28;20419;-89
2023/06/04 09:11:52;;;;;;;6.47;4.55;;;;;;;20.76;40.77;93563.44;5025012;28;20037;-89
2023/06/04 09:14:17;;;;;;;102.38;13.38;;;;;;;20.82;40.49;93559.34;5022837;28;20477;-89
2023/06/04 09:16:50;;;;;;;126.03;16.48;;;;;;;20.77;40.60;93579.41;5051544;28;20040;-91
2023/06/04 09:19:17;;;;;;;67.80;11.80;;;;;;;20.76;40.73;93572.44;5011478;28;20048;-90
2023/06/04 09:21:52;;;;;;;66.40;12.82;;;;;;;20.70;40.86;93573.78;5039001;28;20040;-90
2023/06/04 09:24:21;;;;;;;83.20;13.20;;;;;;;20.71;40.96;93572.50;5027581;28;20037;-90
2023/06/04 09:26:46;;;;;;;68.45;12.18;;;;;;;20.69;41.03;93570.28;5020361;28;20124;-91
2023/06/04 09:29:11;;;;;;;52.47;9.48;;;;;;;20.65;41.35;93564.34;5025845;28;20045;-91
2023/06/04 09:31:38;;;;;;;48.75;10.48;;;;;;;20.68;41.19;93568.81;5030011;28;20043;-91
2023/06/04 09:34:03;;;;;;;37.65;8.20;;;;;;;20.66;40.98;93563.09;5024322;28;20041;-90
2023/06/04 09:36:31;;;;;;;43.78;7.47;;;;;;;20.72;41.09;93560.25;5025693;28;20044;-90
2023/06/04 09:38:56;;;;;;;36.28;7.80;;;;;;;20.70;41.23;93573.78;5012270;28;20034;-90
2023/06/04 09:41:22;;;;;;;30.00;6.57;;;;;;;20.67;41.35;93564.56;5003979;28;20671;-90
2023/06/04 09:43:47;;;;;;;21.10;6.57;;;;;;;20.69;41.50;93562.03;5043206;28;20037;-90
2023/06/04 09:46:13;;;;;;;16.02;6.00;;;;;;;20.72;41.29;93552.75;5010240;28;20458;-90
2023/06/04 09:48:39;;;;;;;19.60;6.20;;;;;;;20.69;41.27;93553.06;5042163;28;20053;-90
2023/06/04 09:51:12;;;;;;;13.63;6.45;;;;;;;20.66;41.26;93562.34;5077019;28;20586;-91
2023/06/04 09:53:38;;;;;;;18.98;8.10;;;;;;;20.69;41.34;93564.06;4994330;28;20404;-91
2023/06/04 09:56:04;;;;;;;24.85;11.25;;;;;;;20.65;41.29;93561.59;5047831;28;20049;-91
2023/06/04 09:58:30;;;;;;;13.73;8.60;;;;;;;20.64;41.21;93562.13;5015800;28;20040;-90
2023/06/04 10:01:00;;;;;;;42.75;10.68;;;;;;;20.61;41.19;93565.91;5026223;28;20034;-90
2023/06/04 10:03:30;;;;;;;21.23;9.30;;;;;;;20.59;41.36;93565.69;5014978;28;20029;-89
2023/06/04 10:05:56;;;;;;;24.60;8.23;;;;;;;20.64;41.37;93562.84;5029457;28;20046;-89
2023/06/04 10:08:23;;;;;;;17.55;6.85;;;;;;;20.65;41.36;93563.59;5011999;28;20025;-90
2023/06/04 10:10:53;;;;;;;16.15;7.13;;;;;;;20.67;41.57;93558.34;5040410;28;20045;-91
2023/06/04 10:13:18;;;;;;;15.32;6.22;;;;;;;20.62;41.65;93561.91;5019235;28;20049;-89
2023/06/04 10:15:45;;;;;;;9.05;5.57;;;;;;;20.63;41.83;93566.13;4988166;28;20078;-89
2023/06/04 10:18:10;;;;;;;17.67;5.75;;;;;;;20.64;42.54;93562.13;5022392;28;20046;-90
2023/06/04 10:20:36;;;;;;;15.18;5.70;;;;;;;20.70;42.23;93560.78;5012045;28;20041;-89
2023/06/04 10:23:02;;;;;;;18.35;5.65;;;;;;;20.69;42.38;93559.28;5039133;28;20050;-89
2023/06/04 10:25:27;;;;;;;12.48;5.32;;;;;;;20.70;42.67;93571.03;5037910;28;20062;-90
2023/06/04 10:27:53;;;;;;;14.30;5.35;;;;;;;20.72;42.52;93574.00;5002885;28;20056;-89
2023/06/04 10:30:18;;;;;;;12.43;5.22;;;;;;;20.72;42.69;93576.75;4997169;28;20332;-91
2023/06/04 10:32:43;;;;;;;23.00;5.55;;;;;;;20.81;42.39;93568.09;5013199;28;20047;-91
2023/06/04 10:35:09;;;;;;;151.38;133.23;;;;;;;20.76;42.32;93571.69;5013360;28;20068;-91
2023/06/04 10:37:35;;;;;;;28.52;15.18;;;;;;;20.77;41.84;93573.91;4992103;28;20096;-89
2023/06/04 10:40:06;;;;;;;12.77;5.47;;;;;;;20.80;42.05;93563.88;5014262;28;20049;-91
2023/06/04 10:42:42;;;;;;;12.55;5.07;;;;;;;20.83;42.36;93573.81;5006789;28;20568;-90
2023/06/04 10:45:08;;;;;;;13.65;5.50;;;;;;;20.86;42.48;93570.78;5000900;28;20036;-91
2023/06/04 10:47:37;;;;;;;17.55;5.97;;;;;;;20.86;42.67;93573.50;5033392;28;20492;-90
2023/06/04 10:50:13;;;;;;;153.40;106.65;;;;;;;20.85;42.23;93571.28;5018394;28;20505;-92
2023/06/04 10:52:39;;;;;;;53.88;35.47;;;;;;;20.87;42.17;93558.50;5052353;28;20137;-89
2023/06/04 10:55:06;;;;;;;23.55;13.00;;;;;;;20.88;42.19;93562.00;5016576;28;20044;-90
2023/06/04 10:57:32;;;;;;;9.07;6.30;;;;;;;20.93;41.99;93572.16;5048324;28;20037;-91
2023/06/04 10:59:58;;;;;;;19.42;11.25;;;;;;;20.94;42.03;93556.44;5012722;28;20500;-90
2023/06/04 11:02:24;;;;;;;15.95;9.25;;;;;;;20.94;42.82;93557.16;5027370;28;20576;-90
2023/06/04 11:05:05;;;;;;;21.92;11.98;;;;;;;20.96;42.52;93560.13;5024150;28;20042;-92
2023/06/04 11:07:40;;;;;;;13.60;7.38;;;;;;;20.96;42.43;93564.88;5048794;28;20049;-89
2023/06/04 11:10:06;;;;;;;11.50;6.20;;;;;;;20.95;42.71;93558.66;5063132;28;20492;-89
2023/06/04 11:12:41;;;;;;;14.07;6.20;;;;;;;20.95;42.56;93575.16;5023341;28;20048;-92
2023/06/04 11:15:07;;;;;;;15.43;6.70;;;;;;;20.89;41.65;93574.47;5042973;28;20036;-90
2023/06/04 11:17:32;;;;;;;12.63;6.50;;;;;;;20.87;41.82;93568.75;5020699;28;20041;-92
2023/06/04 11:20:00;;;;;;;13.63;5.65;;;;;;;20.92;41.69;93561.69;5012586;28;20040;-91
2023/06/04 11:22:25;;;;;;;17.95;5.82;;;;;;;20.97;42.41;93558.13;5039114;28;20041;-91
2023/06/04 11:24:58;;;;;;;15.68;5.28;;;;;;;20.88;42.55;93564.75;5014319;28;20040;-91
2023/06/04 11:27:24;;;;;;;14.43;5.25;;;;;;;20.84;42.30;93556.81;5005654;28;20047;-92